sensor_id;sensor_type;location;lat;lon;timestamp;P1;durP1;ratioP1;P2;durP2;ratioP2
50555;SDS011;36508;52.512;13.450;2023-02-07T00:01:06;34.70;;;25.83;;
50555;SDS011;36508;52.512;13.450;2023-02-07T00:03:32;51.13;;;26.87;;
50555;SDS011;36508;52.512;13.450;2023-02-07T00:06:08;33.23;;;25.40;;
50555;SDS011;36508;52.512;13.450;2023-02-07T00:08:43;28.80;;;25.37;;
50555;SDS011;36508;52.512;13.450;2023-02-07T00:11:13;28.63;;;25.67;;
50555;SDS011;36508;52.512;13.450;2023-02-07T00:13:41;38.73;;;27.80;;
50555;SDS011;36508;52.512;13.450;2023-02-07T00:16:08;46.47;;;29.53;;
50555;SDS011;36508;52.512;13.450;2023-02-07T00:18:34;36.13;;;25.53;;
50555;SDS011;36508;52.512;13.450;2023-02-07T00:21:02;30.47;;;27.10;;
50555;SDS011;36508;52.512;13.450;2023-02-07T00:23:32;28.37;;;25.33;;
50555;SDS011;36508;52.512;13.450;2023-02-07T00:25:59;30.03;;;22.67;;
50555;SDS011;36508;52.512;13.450;2023-02-07T00:28:25;31.80;;;23.47;;
50555;SDS011;36508;52.512;13.450;2023-02-07T00:31:01;27.60;;;24.83;;
50555;SDS011;36508;52.512;13.450;2023-02-07T00:33:34;26.70;;;23.80;;
50555;SDS011;36508;52.512;13.450;2023-02-07T00:36:05;35.87;;;26.37;;
50555;SDS011;36508;52.512;13.450;2023-02-07T00:38:34;33.33;;;26.93;;
50555;SDS011;36508;52.512;13.450;2023-02-07T00:41:03;31.20;;;23.20;;
50555;SDS011;36508;52.512;13.450;2023-02-07T00:43:30;26.20;;;22.47;;
50555;SDS011;36508;52.512;13.450;2023-02-07T00:45:56;31.23;;;24.73;;
50555;SDS011;36508;52.512;13.450;2023-02-07T00:48:23;37.90;;;26.03;;
50555;SDS011;36508;52.512;13.450;2023-02-07T00:50:49;31.03;;;26.43;;
50555;SDS011;36508;52.512;13.450;2023-02-07T00:53:15;28.60;;;25.60;;
50555;SDS011;36508;52.512;13.450;2023-02-07T00:55:41;31.47;;;23.17;;
50555;SDS011;36508;52.512;13.450;2023-02-07T00:58:07;30.87;;;22.37;;
50555;SDS011;36508;52.512;13.450;2023-02-07T01:00:32;29.63;;;22.73;;
50555;SDS011;36508;52.512;13.450;2023-02-07T01:02:58;30.03;;;22.07;;
50555;SDS011;36508;52.512;13.450;2023-02-07T01:05:24;28.37;;;22.53;;
50555;SDS011;36508;52.512;13.450;2023-02-07T01:07:50;30.07;;;24.07;;
50555;SDS011;36508;52.512;13.450;2023-02-07T01:10:16;31.03;;;21.37;;
50555;SDS011;36508;52.512;13.450;2023-02-07T01:12:41;26.53;;;20.83;;
50555;SDS011;36508;52.512;13.450;2023-02-07T01:15:10;27.83;;;22.97;;
50555;SDS011;36508;52.512;13.450;2023-02-07T01:17:36;30.13;;;23.00;;
50555;SDS011;36508;52.512;13.450;2023-02-07T01:20:01;26.23;;;23.47;;
50555;SDS011;36508;52.512;13.450;2023-02-07T01:22:30;24.70;;;21.10;;
50555;SDS011;36508;52.512;13.450;2023-02-07T01:24:59;29.90;;;22.80;;
50555;SDS011;36508;52.512;13.450;2023-02-07T01:27:24;35.43;;;23.17;;
50555;SDS011;36508;52.512;13.450;2023-02-07T01:29:50;28.63;;;20.27;;
50555;SDS011;36508;52.512;13.450;2023-02-07T01:32:18;30.27;;;23.83;;
50555;SDS011;36508;52.512;13.450;2023-02-07T01:34:44;27.03;;;23.40;;
50555;SDS011;36508;52.512;13.450;2023-02-07T01:37:30;30.50;;;22.37;;
50555;SDS011;36508;52.512;13.450;2023-02-07T01:39:56;26.20;;;22.57;;
50555;SDS011;36508;52.512;13.450;2023-02-07T01:42:26;27.70;;;21.57;;
50555;SDS011;36508;52.512;13.450;2023-02-07T01:47:22;32.43;;;24.93;;
50555;SDS011;36508;52.512;13.450;2023-02-07T01:49:49;31.73;;;23.70;;
50555;SDS011;36508;52.512;13.450;2023-02-07T01:52:19;31.17;;;23.33;;
50555;SDS011;36508;52.512;13.450;2023-02-07T01:54:52;31.00;;;23.20;;
50555;SDS011;36508;52.512;13.450;2023-02-07T01:57:23;26.87;;;21.43;;
50555;SDS011;36508;52.512;13.450;2023-02-07T01:59:50;29.83;;;22.93;;
50555;SDS011;36508;52.512;13.450;2023-02-07T02:02:20;26.83;;;21.83;;
50555;SDS011;36508;52.512;13.450;2023-02-07T02:07:26;30.60;;;23.33;;
50555;SDS011;36508;52.512;13.450;2023-02-07T02:09:57;27.43;;;22.83;;
50555;SDS011;36508;52.512;13.450;2023-02-07T02:15:28;29.67;;;24.47;;
50555;SDS011;36508;52.512;13.450;2023-02-07T02:18:43;27.43;;;22.30;;
50555;SDS011;36508;52.512;13.450;2023-02-07T02:24:10;30.13;;;23.67;;
50555;SDS011;36508;52.512;13.450;2023-02-07T02:30:21;23.53;;;21.13;;
50555;SDS011;36508;52.512;13.450;2023-02-07T02:38:37;31.40;;;23.73;;
50555;SDS011;36508;52.512;13.450;2023-02-07T02:43:43;40.10;;;26.63;;
50555;SDS011;36508;52.512;13.450;2023-02-07T02:46:13;35.53;;;24.67;;
50555;SDS011;36508;52.512;13.450;2023-02-07T02:48:45;27.67;;;23.70;;
50555;SDS011;36508;52.512;13.450;2023-02-07T02:51:12;32.40;;;22.83;;
50555;SDS011;36508;52.512;13.450;2023-02-07T02:53:37;29.77;;;24.60;;
50555;SDS011;36508;52.512;13.450;2023-02-07T02:56:13;33.40;;;26.07;;
50555;SDS011;36508;52.512;13.450;2023-02-07T03:07:47;34.97;;;27.97;;
50555;SDS011;36508;52.512;13.450;2023-02-07T03:21:29;30.90;;;26.13;;
50555;SDS011;36508;52.512;13.450;2023-02-07T03:24:05;33.30;;;26.93;;
50555;SDS011;36508;52.512;13.450;2023-02-07T03:26:34;33.03;;;25.10;;
50555;SDS011;36508;52.512;13.450;2023-02-07T03:29:01;35.23;;;27.03;;
50555;SDS011;36508;52.512;13.450;2023-02-07T03:31:30;35.20;;;26.40;;
50555;SDS011;36508;52.512;13.450;2023-02-07T03:34:01;33.83;;;26.33;;
50555;SDS011;36508;52.512;13.450;2023-02-07T03:36:33;37.13;;;26.17;;
50555;SDS011;36508;52.512;13.450;2023-02-07T03:39:10;30.30;;;23.40;;
50555;SDS011;36508;52.512;13.450;2023-02-07T03:41:38;28.80;;;24.40;;
50555;SDS011;36508;52.512;13.450;2023-02-07T03:44:08;27.57;;;22.00;;
50555;SDS011;36508;52.512;13.450;2023-02-07T03:46:37;28.33;;;23.40;;
50555;SDS011;36508;52.512;13.450;2023-02-07T03:49:04;26.60;;;22.00;;
50555;SDS011;36508;52.512;13.450;2023-02-07T03:51:32;29.57;;;24.17;;
50555;SDS011;36508;52.512;13.450;2023-02-07T03:53:58;28.57;;;25.57;;
50555;SDS011;36508;52.512;13.450;2023-02-07T03:56:24;30.50;;;22.63;;
50555;SDS011;36508;52.512;13.450;2023-02-07T03:58:49;26.90;;;22.80;;
50555;SDS011;36508;52.512;13.450;2023-02-07T04:01:15;31.47;;;25.13;;
50555;SDS011;36508;52.512;13.450;2023-02-07T04:03:41;26.90;;;24.00;;
50555;SDS011;36508;52.512;13.450;2023-02-07T04:06:13;30.03;;;24.97;;
50555;SDS011;36508;52.512;13.450;2023-02-07T04:08:38;27.20;;;22.90;;
50555;SDS011;36508;52.512;13.450;2023-02-07T04:11:04;29.57;;;22.40;;
50555;SDS011;36508;52.512;13.450;2023-02-07T04:13:32;25.87;;;23.10;;
50555;SDS011;36508;52.512;13.450;2023-02-07T04:16:02;31.07;;;24.57;;
50555;SDS011;36508;52.512;13.450;2023-02-07T04:18:30;28.00;;;23.80;;
50555;SDS011;36508;52.512;13.450;2023-02-07T04:21:03;32.43;;;24.70;;
50555;SDS011;36508;52.512;13.450;2023-02-07T04:23:29;29.07;;;25.93;;
50555;SDS011;36508;52.512;13.450;2023-02-07T04:25:57;27.00;;;24.10;;
50555;SDS011;36508;52.512;13.450;2023-02-07T04:28:23;27.73;;;23.97;;
50555;SDS011;36508;52.512;13.450;2023-02-07T04:30:49;29.37;;;24.40;;
50555;SDS011;36508;52.512;13.450;2023-02-07T04:33:15;25.37;;;22.67;;
50555;SDS011;36508;52.512;13.450;2023-02-07T04:35:41;37.60;;;26.37;;
50555;SDS011;36508;52.512;13.450;2023-02-07T04:38:07;30.40;;;26.93;;
50555;SDS011;36508;52.512;13.450;2023-02-07T04:40:33;30.00;;;25.30;;
50555;SDS011;36508;52.512;13.450;2023-02-07T04:42:59;33.03;;;26.63;;
50555;SDS011;36508;52.512;13.450;2023-02-07T04:45:25;30.90;;;23.97;;
50555;SDS011;36508;52.512;13.450;2023-02-07T04:47:51;37.20;;;23.40;;
50555;SDS011;36508;52.512;13.450;2023-02-07T04:50:17;30.73;;;25.27;;
50555;SDS011;36508;52.512;13.450;2023-02-07T04:53:11;33.50;;;26.83;;
50555;SDS011;36508;52.512;13.450;2023-02-07T04:55:36;33.37;;;23.97;;
50555;SDS011;36508;52.512;13.450;2023-02-07T04:58:03;31.43;;;26.13;;
50555;SDS011;36508;52.512;13.450;2023-02-07T05:00:32;31.93;;;26.40;;
50555;SDS011;36508;52.512;13.450;2023-02-07T05:02:59;30.57;;;26.40;;
50555;SDS011;36508;52.512;13.450;2023-02-07T05:05:25;34.80;;;28.30;;
50555;SDS011;36508;52.512;13.450;2023-02-07T05:07:53;30.47;;;25.37;;
50555;SDS011;36508;52.512;13.450;2023-02-07T05:10:22;37.00;;;30.50;;
50555;SDS011;36508;52.512;13.450;2023-02-07T05:12:47;35.27;;;25.10;;
50555;SDS011;36508;52.512;13.450;2023-02-07T05:15:16;29.23;;;25.97;;
50555;SDS011;36508;52.512;13.450;2023-02-07T05:17:42;29.30;;;25.03;;
50555;SDS011;36508;52.512;13.450;2023-02-07T05:20:11;34.20;;;24.73;;
50555;SDS011;36508;52.512;13.450;2023-02-07T05:22:37;32.87;;;27.10;;
50555;SDS011;36508;52.512;13.450;2023-02-07T05:25:05;27.50;;;24.70;;
50555;SDS011;36508;52.512;13.450;2023-02-07T05:27:31;28.23;;;24.87;;
50555;SDS011;36508;52.512;13.450;2023-02-07T05:29:57;31.90;;;24.67;;
50555;SDS011;36508;52.512;13.450;2023-02-07T05:32:23;30.80;;;25.73;;
50555;SDS011;36508;52.512;13.450;2023-02-07T05:35:07;33.17;;;24.73;;
50555;SDS011;36508;52.512;13.450;2023-02-07T05:37:35;34.90;;;28.33;;
50555;SDS011;36508;52.512;13.450;2023-02-07T05:40:01;33.37;;;27.13;;
50555;SDS011;36508;52.512;13.450;2023-02-07T05:42:30;31.73;;;27.07;;
50555;SDS011;36508;52.512;13.450;2023-02-07T05:44:56;33.73;;;26.57;;
50555;SDS011;36508;52.512;13.450;2023-02-07T05:47:31;41.70;;;30.50;;
50555;SDS011;36508;52.512;13.450;2023-02-07T05:49:57;29.77;;;26.70;;
50555;SDS011;36508;52.512;13.450;2023-02-07T05:52:25;30.70;;;24.87;;
50555;SDS011;36508;52.512;13.450;2023-02-07T05:54:51;43.03;;;29.10;;
50555;SDS011;36508;52.512;13.450;2023-02-07T05:57:17;34.13;;;26.07;;
50555;SDS011;36508;52.512;13.450;2023-02-07T05:59:43;33.87;;;28.63;;
50555;SDS011;36508;52.512;13.450;2023-02-07T06:02:09;44.17;;;28.57;;
50555;SDS011;36508;52.512;13.450;2023-02-07T06:04:34;35.53;;;27.50;;
50555;SDS011;36508;52.512;13.450;2023-02-07T06:07:00;28.70;;;25.57;;
50555;SDS011;36508;52.512;13.450;2023-02-07T06:09:26;32.60;;;27.10;;
50555;SDS011;36508;52.512;13.450;2023-02-07T06:11:52;40.70;;;29.10;;
50555;SDS011;36508;52.512;13.450;2023-02-07T06:14:20;30.00;;;24.23;;
50555;SDS011;36508;52.512;13.450;2023-02-07T06:16:49;36.17;;;28.30;;
50555;SDS011;36508;52.512;13.450;2023-02-07T06:19:15;34.37;;;27.90;;
50555;SDS011;36508;52.512;13.450;2023-02-07T06:21:40;40.47;;;28.63;;
50555;SDS011;36508;52.512;13.450;2023-02-07T06:24:06;30.47;;;26.50;;
50555;SDS011;36508;52.512;13.450;2023-02-07T06:26:35;30.50;;;25.93;;
50555;SDS011;36508;52.512;13.450;2023-02-07T06:29:03;27.43;;;24.50;;
50555;SDS011;36508;52.512;13.450;2023-02-07T06:31:29;33.17;;;25.67;;
50555;SDS011;36508;52.512;13.450;2023-02-07T06:33:55;35.37;;;27.17;;
50555;SDS011;36508;52.512;13.450;2023-02-07T06:36:21;37.43;;;25.63;;
50555;SDS011;36508;52.512;13.450;2023-02-07T06:38:46;39.90;;;27.90;;
50555;SDS011;36508;52.512;13.450;2023-02-07T06:41:13;37.00;;;26.30;;
50555;SDS011;36508;52.512;13.450;2023-02-07T06:43:39;37.47;;;25.70;;
50555;SDS011;36508;52.512;13.450;2023-02-07T06:46:06;32.20;;;26.10;;
50555;SDS011;36508;52.512;13.450;2023-02-07T06:48:31;32.10;;;24.53;;
50555;SDS011;36508;52.512;13.450;2023-02-07T06:50:57;30.60;;;25.47;;
50555;SDS011;36508;52.512;13.450;2023-02-07T06:53:23;34.43;;;26.90;;
50555;SDS011;36508;52.512;13.450;2023-02-07T06:55:49;29.40;;;24.67;;
50555;SDS011;36508;52.512;13.450;2023-02-07T06:58:15;34.33;;;27.60;;
50555;SDS011;36508;52.512;13.450;2023-02-07T07:00:40;28.17;;;25.10;;
50555;SDS011;36508;52.512;13.450;2023-02-07T07:03:08;33.87;;;27.80;;
50555;SDS011;36508;52.512;13.450;2023-02-07T07:05:37;42.50;;;31.77;;
50555;SDS011;36508;52.512;13.450;2023-02-07T07:08:03;37.80;;;31.60;;
50555;SDS011;36508;52.512;13.450;2023-02-07T07:10:28;36.37;;;30.97;;
50555;SDS011;36508;52.512;13.450;2023-02-07T07:12:54;37.10;;;28.97;;
50555;SDS011;36508;52.512;13.450;2023-02-07T07:15:20;34.80;;;29.53;;
50555;SDS011;36508;52.512;13.450;2023-02-07T07:17:46;39.00;;;30.90;;
50555;SDS011;36508;52.512;13.450;2023-02-07T07:20:11;42.90;;;30.63;;
50555;SDS011;36508;52.512;13.450;2023-02-07T07:22:37;44.97;;;34.33;;
50555;SDS011;36508;52.512;13.450;2023-02-07T07:25:09;37.87;;;29.87;;
50555;SDS011;36508;52.512;13.450;2023-02-07T07:27:35;41.93;;;30.47;;
50555;SDS011;36508;52.512;13.450;2023-02-07T07:30:01;39.77;;;31.77;;
50555;SDS011;36508;52.512;13.450;2023-02-07T07:32:27;49.57;;;35.70;;
50555;SDS011;36508;52.512;13.450;2023-02-07T07:34:53;41.97;;;33.87;;
50555;SDS011;36508;52.512;13.450;2023-02-07T07:37:19;44.80;;;32.50;;
50555;SDS011;36508;52.512;13.450;2023-02-07T07:39:45;41.00;;;31.80;;
50555;SDS011;36508;52.512;13.450;2023-02-07T07:42:14;39.40;;;33.87;;
50555;SDS011;36508;52.512;13.450;2023-02-07T07:44:40;37.90;;;31.27;;
50555;SDS011;36508;52.512;13.450;2023-02-07T07:47:05;36.80;;;29.10;;
50555;SDS011;36508;52.512;13.450;2023-02-07T07:49:31;32.30;;;28.80;;
50555;SDS011;36508;52.512;13.450;2023-02-07T07:51:57;38.80;;;29.60;;
50555;SDS011;36508;52.512;13.450;2023-02-07T07:54:23;47.07;;;31.27;;
50555;SDS011;36508;52.512;13.450;2023-02-07T07:56:49;40.37;;;32.47;;
50555;SDS011;36508;52.512;13.450;2023-02-07T07:59:15;38.27;;;29.57;;
50555;SDS011;36508;52.512;13.450;2023-02-07T08:01:46;36.23;;;29.50;;
50555;SDS011;36508;52.512;13.450;2023-02-07T08:04:12;42.57;;;32.83;;
50555;SDS011;36508;52.512;13.450;2023-02-07T08:06:38;42.27;;;29.50;;
50555;SDS011;36508;52.512;13.450;2023-02-07T08:09:05;41.20;;;31.73;;
50555;SDS011;36508;52.512;13.450;2023-02-07T08:11:31;41.60;;;30.30;;
50555;SDS011;36508;52.512;13.450;2023-02-07T08:13:57;37.87;;;30.83;;
50555;SDS011;36508;52.512;13.450;2023-02-07T08:16:22;37.37;;;30.80;;
50555;SDS011;36508;52.512;13.450;2023-02-07T08:18:48;35.97;;;29.27;;
50555;SDS011;36508;52.512;13.450;2023-02-07T08:21:14;42.57;;;29.37;;
50555;SDS011;36508;52.512;13.450;2023-02-07T08:26:09;44.40;;;33.50;;
50555;SDS011;36508;52.512;13.450;2023-02-07T08:28:34;36.20;;;29.80;;
50555;SDS011;36508;52.512;13.450;2023-02-07T08:31:01;33.27;;;26.13;;
50555;SDS011;36508;52.512;13.450;2023-02-07T08:33:28;33.60;;;26.57;;
50555;SDS011;36508;52.512;13.450;2023-02-07T08:35:54;32.57;;;27.90;;
50555;SDS011;36508;52.512;13.450;2023-02-07T08:38:20;40.73;;;28.60;;
50555;SDS011;36508;52.512;13.450;2023-02-07T08:40:46;34.57;;;28.07;;
50555;SDS011;36508;52.512;13.450;2023-02-07T08:43:12;36.03;;;27.57;;
50555;SDS011;36508;52.512;13.450;2023-02-07T08:45:39;33.03;;;27.30;;
50555;SDS011;36508;52.512;13.450;2023-02-07T08:48:05;40.80;;;29.07;;
50555;SDS011;36508;52.512;13.450;2023-02-07T08:50:31;48.27;;;29.50;;
50555;SDS011;36508;52.512;13.450;2023-02-07T08:52:57;37.73;;;29.37;;
50555;SDS011;36508;52.512;13.450;2023-02-07T08:55:25;40.43;;;28.17;;
50555;SDS011;36508;52.512;13.450;2023-02-07T08:57:50;32.60;;;27.40;;
50555;SDS011;36508;52.512;13.450;2023-02-07T09:00:16;32.37;;;25.10;;
50555;SDS011;36508;52.512;13.450;2023-02-07T09:02:42;38.30;;;27.30;;
50555;SDS011;36508;52.512;13.450;2023-02-07T09:05:08;27.30;;;23.20;;
50555;SDS011;36508;52.512;13.450;2023-02-07T09:07:34;24.47;;;21.83;;
50555;SDS011;36508;52.512;13.450;2023-02-07T09:10:00;25.10;;;20.90;;
50555;SDS011;36508;52.512;13.450;2023-02-07T09:12:28;44.37;;;30.80;;
50555;SDS011;36508;52.512;13.450;2023-02-07T09:14:55;33.53;;;27.40;;
50555;SDS011;36508;52.512;13.450;2023-02-07T09:17:21;29.00;;;23.97;;
50555;SDS011;36508;52.512;13.450;2023-02-07T09:19:47;32.00;;;24.67;;
50555;SDS011;36508;52.512;13.450;2023-02-07T09:22:16;27.70;;;22.80;;
50555;SDS011;36508;52.512;13.450;2023-02-07T09:24:41;32.87;;;23.47;;
50555;SDS011;36508;52.512;13.450;2023-02-07T09:27:07;24.63;;;21.37;;
50555;SDS011;36508;52.512;13.450;2023-02-07T09:29:33;34.20;;;22.03;;
50555;SDS011;36508;52.512;13.450;2023-02-07T09:31:59;29.40;;;22.13;;
50555;SDS011;36508;52.512;13.450;2023-02-07T09:34:25;32.67;;;23.60;;
50555;SDS011;36508;52.512;13.450;2023-02-07T09:36:51;28.60;;;21.03;;
50555;SDS011;36508;52.512;13.450;2023-02-07T09:39:17;26.20;;;20.67;;
50555;SDS011;36508;52.512;13.450;2023-02-07T09:44:45;26.57;;;20.27;;
50555;SDS011;36508;52.512;13.450;2023-02-07T09:47:27;22.27;;;19.43;;
50555;SDS011;36508;52.512;13.450;2023-02-07T09:49:57;24.50;;;21.10;;
50555;SDS011;36508;52.512;13.450;2023-02-07T09:52:46;28.60;;;24.00;;
50555;SDS011;36508;52.512;13.450;2023-02-07T09:55:20;27.47;;;20.13;;
50555;SDS011;36508;52.512;13.450;2023-02-07T09:57:58;26.50;;;21.43;;
50555;SDS011;36508;52.512;13.450;2023-02-07T10:00:58;25.33;;;21.83;;
50555;SDS011;36508;52.512;13.450;2023-02-07T10:03:34;30.17;;;22.07;;
50555;SDS011;36508;52.512;13.450;2023-02-07T10:06:11;29.33;;;24.47;;
50555;SDS011;36508;52.512;13.450;2023-02-07T10:08:48;37.90;;;26.90;;
50555;SDS011;36508;52.512;13.450;2023-02-07T10:17:33;28.53;;;22.73;;
50555;SDS011;36508;52.512;13.450;2023-02-07T10:20:21;33.53;;;23.77;;
50555;SDS011;36508;52.512;13.450;2023-02-07T10:22:58;30.70;;;21.63;;
50555;SDS011;36508;52.512;13.450;2023-02-07T10:30:59;25.20;;;22.00;;
50555;SDS011;36508;52.512;13.450;2023-02-07T10:33:32;27.70;;;21.37;;
50555;SDS011;36508;52.512;13.450;2023-02-07T10:36:02;22.27;;;19.90;;
50555;SDS011;36508;52.512;13.450;2023-02-07T10:41:36;22.60;;;18.93;;
50555;SDS011;36508;52.512;13.450;2023-02-07T10:44:04;24.97;;;22.67;;
50555;SDS011;36508;52.512;13.450;2023-02-07T10:46:34;21.93;;;19.50;;
50555;SDS011;36508;52.512;13.450;2023-02-07T10:49:01;20.70;;;18.50;;
50555;SDS011;36508;52.512;13.450;2023-02-07T10:51:30;19.87;;;18.00;;
50555;SDS011;36508;52.512;13.450;2023-02-07T10:56:41;21.97;;;19.07;;
50555;SDS011;36508;52.512;13.450;2023-02-07T11:02:46;24.63;;;21.57;;
50555;SDS011;36508;52.512;13.450;2023-02-07T11:10:33;21.40;;;19.20;;
50555;SDS011;36508;52.512;13.450;2023-02-07T11:13:05;23.00;;;20.60;;
50555;SDS011;36508;52.512;13.450;2023-02-07T11:18:31;21.10;;;19.10;;
50555;SDS011;36508;52.512;13.450;2023-02-07T11:21:07;20.77;;;18.87;;
50555;SDS011;36508;52.512;13.450;2023-02-07T11:23:59;20.93;;;18.93;;
50555;SDS011;36508;52.512;13.450;2023-02-07T11:26:29;20.90;;;18.90;;
50555;SDS011;36508;52.512;13.450;2023-02-07T11:29:05;20.13;;;18.10;;
50555;SDS011;36508;52.512;13.450;2023-02-07T11:31:40;19.47;;;17.53;;
50555;SDS011;36508;52.512;13.450;2023-02-07T11:34:26;21.53;;;19.70;;
50555;SDS011;36508;52.512;13.450;2023-02-07T11:37:46;21.43;;;19.23;;
50555;SDS011;36508;52.512;13.450;2023-02-07T11:39:42;19.80;;;17.80;;
50555;SDS011;36508;52.512;13.450;2023-02-07T11:42:29;19.23;;;17.33;;
50555;SDS011;36508;52.512;13.450;2023-02-07T11:44:56;19.77;;;17.80;;
50555;SDS011;36508;52.512;13.450;2023-02-07T11:47:28;19.27;;;17.30;;
50555;SDS011;36508;52.512;13.450;2023-02-07T11:49:57;18.10;;;15.97;;
50555;SDS011;36508;52.512;13.450;2023-02-07T11:52:28;20.50;;;18.47;;
50555;SDS011;36508;52.512;13.450;2023-02-07T11:54:56;19.47;;;17.43;;
50555;SDS011;36508;52.512;13.450;2023-02-07T11:57:26;23.13;;;20.70;;
50555;SDS011;36508;52.512;13.450;2023-02-07T12:00:00;21.60;;;19.43;;
50555;SDS011;36508;52.512;13.450;2023-02-07T12:02:57;22.80;;;20.50;;
50555;SDS011;36508;52.512;13.450;2023-02-07T12:08:14;21.00;;;17.93;;
50555;SDS011;36508;52.512;13.450;2023-02-07T12:10:50;22.80;;;19.33;;
50555;SDS011;36508;52.512;13.450;2023-02-07T12:13:25;26.37;;;19.57;;
50555;SDS011;36508;52.512;13.450;2023-02-07T12:16:01;24.57;;;18.57;;
50555;SDS011;36508;52.512;13.450;2023-02-07T12:18:41;26.33;;;18.07;;
50555;SDS011;36508;52.512;13.450;2023-02-07T12:21:19;20.70;;;17.27;;
50555;SDS011;36508;52.512;13.450;2023-02-07T12:32:29;21.33;;;15.87;;
50555;SDS011;36508;52.512;13.450;2023-02-07T12:40:38;17.93;;;14.70;;
50555;SDS011;36508;52.512;13.450;2023-02-07T12:43:18;18.73;;;15.33;;
50555;SDS011;36508;52.512;13.450;2023-02-07T12:55:07;19.57;;;17.57;;
50555;SDS011;36508;52.512;13.450;2023-02-07T12:57:17;17.40;;;14.90;;
50555;SDS011;36508;52.512;13.450;2023-02-07T13:08:34;20.80;;;16.70;;
50555;SDS011;36508;52.512;13.450;2023-02-07T13:11:40;18.40;;;15.27;;
50555;SDS011;36508;52.512;13.450;2023-02-07T13:22:52;22.10;;;17.20;;
50555;SDS011;36508;52.512;13.450;2023-02-07T13:25:37;21.00;;;17.03;;
50555;SDS011;36508;52.512;13.450;2023-02-07T13:28:17;17.93;;;15.47;;
50555;SDS011;36508;52.512;13.450;2023-02-07T13:30:45;16.50;;;14.77;;
50555;SDS011;36508;52.512;13.450;2023-02-07T13:33:26;17.80;;;14.90;;
50555;SDS011;36508;52.512;13.450;2023-02-07T13:42:20;18.73;;;15.03;;
50555;SDS011;36508;52.512;13.450;2023-02-07T13:48:13;20.73;;;16.80;;
50555;SDS011;36508;52.512;13.450;2023-02-07T13:50:57;17.90;;;15.93;;
50555;SDS011;36508;52.512;13.450;2023-02-07T13:53:50;21.90;;;18.70;;
50555;SDS011;36508;52.512;13.450;2023-02-07T13:56:38;17.07;;;15.27;;
50555;SDS011;36508;52.512;13.450;2023-02-07T13:59:37;16.87;;;14.73;;
50555;SDS011;36508;52.512;13.450;2023-02-07T14:02:15;17.50;;;15.63;;
50555;SDS011;36508;52.512;13.450;2023-02-07T14:04:56;18.97;;;16.47;;
50555;SDS011;36508;52.512;13.450;2023-02-07T14:07:31;15.43;;;13.83;;
50555;SDS011;36508;52.512;13.450;2023-02-07T14:10:00;16.57;;;14.63;;
50555;SDS011;36508;52.512;13.450;2023-02-07T14:12:27;17.00;;;13.70;;
50555;SDS011;36508;52.512;13.450;2023-02-07T14:14:55;18.57;;;16.50;;
50555;SDS011;36508;52.512;13.450;2023-02-07T14:18:31;21.83;;;15.50;;
50555;SDS011;36508;52.512;13.450;2023-02-07T14:21:04;26.83;;;18.30;;
50555;SDS011;36508;52.512;13.450;2023-02-07T14:24:31;17.20;;;14.30;;
50555;SDS011;36508;52.512;13.450;2023-02-07T14:32:19;16.70;;;14.80;;
50555;SDS011;36508;52.512;13.450;2023-02-07T14:37:48;17.43;;;15.63;;
50555;SDS011;36508;52.512;13.450;2023-02-07T14:40:47;22.23;;;16.97;;
50555;SDS011;36508;52.512;13.450;2023-02-07T14:43:22;18.90;;;16.90;;
50555;SDS011;36508;52.512;13.450;2023-02-07T14:51:20;17.37;;;15.47;;
50555;SDS011;36508;52.512;13.450;2023-02-07T14:53:56;18.03;;;16.20;;
50555;SDS011;36508;52.512;13.450;2023-02-07T14:56:40;30.50;;;21.30;;
50555;SDS011;36508;52.512;13.450;2023-02-07T14:59:13;23.00;;;17.53;;
50555;SDS011;36508;52.512;13.450;2023-02-07T15:01:43;23.37;;;17.93;;
50555;SDS011;36508;52.512;13.450;2023-02-07T15:04:08;18.53;;;16.50;;
50555;SDS011;36508;52.512;13.450;2023-02-07T15:06:37;19.97;;;16.67;;
50555;SDS011;36508;52.512;13.450;2023-02-07T15:09:05;19.20;;;16.80;;
50555;SDS011;36508;52.512;13.450;2023-02-07T15:11:40;19.80;;;16.03;;
50555;SDS011;36508;52.512;13.450;2023-02-07T15:14:13;20.30;;;16.07;;
50555;SDS011;36508;52.512;13.450;2023-02-07T15:16:55;20.53;;;17.20;;
50555;SDS011;36508;52.512;13.450;2023-02-07T15:19:34;20.77;;;17.30;;
50555;SDS011;36508;52.512;13.450;2023-02-07T15:22:08;18.50;;;15.97;;
50555;SDS011;36508;52.512;13.450;2023-02-07T15:24:46;19.43;;;15.93;;
50555;SDS011;36508;52.512;13.450;2023-02-07T15:27:20;20.10;;;16.40;;
50555;SDS011;36508;52.512;13.450;2023-02-07T15:29:53;22.40;;;17.60;;
50555;SDS011;36508;52.512;13.450;2023-02-07T15:32:27;22.73;;;17.27;;
50555;SDS011;36508;52.512;13.450;2023-02-07T15:35:25;23.17;;;17.73;;
50555;SDS011;36508;52.512;13.450;2023-02-07T15:37:53;20.50;;;17.80;;
50555;SDS011;36508;52.512;13.450;2023-02-07T15:40:38;19.30;;;17.30;;
50555;SDS011;36508;52.512;13.450;2023-02-07T15:43:17;22.47;;;17.40;;
50555;SDS011;36508;52.512;13.450;2023-02-07T15:46:31;23.10;;;20.20;;
50555;SDS011;36508;52.512;13.450;2023-02-07T15:48:54;26.00;;;19.70;;
50555;SDS011;36508;52.512;13.450;2023-02-07T15:51:25;25.50;;;19.40;;
50555;SDS011;36508;52.512;13.450;2023-02-07T15:53:56;21.87;;;18.50;;
50555;SDS011;36508;52.512;13.450;2023-02-07T15:56:23;20.60;;;17.73;;
50555;SDS011;36508;52.512;13.450;2023-02-07T15:58:50;21.50;;;17.73;;
50555;SDS011;36508;52.512;13.450;2023-02-07T16:01:23;20.43;;;18.10;;
50555;SDS011;36508;52.512;13.450;2023-02-07T16:03:52;21.83;;;19.40;;
50555;SDS011;36508;52.512;13.450;2023-02-07T16:08:59;22.87;;;16.90;;
50555;SDS011;36508;52.512;13.450;2023-02-07T16:11:36;21.17;;;18.40;;
50555;SDS011;36508;52.512;13.450;2023-02-07T16:14:20;20.10;;;18.07;;
50555;SDS011;36508;52.512;13.450;2023-02-07T16:16:56;24.40;;;16.60;;
50555;SDS011;36508;52.512;13.450;2023-02-07T16:19:27;22.83;;;18.00;;
50555;SDS011;36508;52.512;13.450;2023-02-07T16:24:43;23.93;;;18.97;;
50555;SDS011;36508;52.512;13.450;2023-02-07T16:27:18;22.43;;;19.27;;
50555;SDS011;36508;52.512;13.450;2023-02-07T16:29:52;20.97;;;16.63;;
50555;SDS011;36508;52.512;13.450;2023-02-07T16:32:18;22.17;;;19.47;;
50555;SDS011;36508;52.512;13.450;2023-02-07T16:34:45;23.37;;;18.60;;
50555;SDS011;36508;52.512;13.450;2023-02-07T16:37:10;24.93;;;18.27;;
50555;SDS011;36508;52.512;13.450;2023-02-07T16:39:37;28.10;;;20.73;;
50555;SDS011;36508;52.512;13.450;2023-02-07T16:42:06;21.57;;;18.10;;
50555;SDS011;36508;52.512;13.450;2023-02-07T16:44:37;25.03;;;19.60;;
50555;SDS011;36508;52.512;13.450;2023-02-07T16:47:03;26.63;;;23.27;;
50555;SDS011;36508;52.512;13.450;2023-02-07T16:49:29;39.93;;;26.27;;
50555;SDS011;36508;52.512;13.450;2023-02-07T16:51:59;38.57;;;24.30;;
50555;SDS011;36508;52.512;13.450;2023-02-07T16:54:27;41.10;;;30.53;;
50555;SDS011;36508;52.512;13.450;2023-02-07T16:56:53;41.37;;;28.60;;
50555;SDS011;36508;52.512;13.450;2023-02-07T16:59:22;26.80;;;22.27;;